createdAt,value
2018-09-12T00:00:12.994Z,1013.66
2018-09-12T00:01:12.985Z,1013.65
2018-09-12T00:02:12.977Z,1013.68
2018-09-12T00:03:13.014Z,1013.68
2018-09-12T00:04:12.957Z,1013.61
2018-09-12T00:05:12.937Z,1013.65
2018-09-12T00:06:12.929Z,1013.59
2018-09-12T00:07:12.918Z,1013.60
2018-09-12T00:08:12.904Z,1013.58
2018-09-12T00:09:12.932Z,1013.60
2018-09-12T00:10:12.913Z,1013.59
2018-09-12T00:11:12.871Z,1013.63
2018-09-12T00:12:12.864Z,1013.58
2018-09-12T00:13:12.872Z,1013.56
2018-09-12T00:14:12.838Z,1013.53
2018-09-12T00:15:12.838Z,1013.57
2018-09-12T00:16:12.841Z,1013.54
2018-09-12T00:17:12.805Z,1013.55
2018-09-12T00:18:12.795Z,1013.56
2018-09-12T00:19:12.782Z,1013.58
2018-09-12T00:20:12.788Z,1013.59
2018-09-12T00:21:12.810Z,1013.60
2018-09-12T00:22:12.762Z,1013.57
2018-09-12T00:23:12.772Z,1013.61
2018-09-12T00:24:12.734Z,1013.60
2018-09-12T00:25:12.721Z,1013.60
2018-09-12T00:26:12.717Z,1013.63
2018-09-12T00:27:12.717Z,1013.59
2018-09-12T00:28:12.684Z,1013.57
2018-09-12T00:29:12.706Z,1013.60
2018-09-12T00:30:12.659Z,1013.60
2018-09-12T00:31:12.652Z,1013.56
2018-09-12T00:32:12.665Z,1013.54
2018-09-12T00:33:12.627Z,1013.57
2018-09-12T00:34:12.614Z,1013.58
2018-09-12T00:35:12.638Z,1013.60
2018-09-12T00:36:12.618Z,1013.60
2018-09-12T00:37:12.608Z,1013.59
2018-09-12T00:38:12.589Z,1013.59
2018-09-12T00:39:12.563Z,1013.62
2018-09-12T00:40:12.556Z,1013.61
2018-09-12T00:41:12.561Z,1013.63
2018-09-12T00:42:12.549Z,1013.63
2018-09-12T00:43:12.525Z,1013.62
2018-09-12T00:44:12.508Z,1013.60
2018-09-12T00:45:12.497Z,1013.60
2018-09-12T00:46:12.485Z,1013.61
2018-09-12T00:47:12.471Z,1013.59
2018-09-12T00:48:12.507Z,1013.57
2018-09-12T00:49:12.453Z,1013.55
2018-09-12T00:50:12.442Z,1013.55
2018-09-12T00:51:12.430Z,1013.54
2018-09-12T00:52:12.423Z,1013.56
2018-09-12T00:53:12.410Z,1013.49
2018-09-12T00:54:12.447Z,1013.50
2018-09-12T00:55:12.393Z,1013.51
2018-09-12T00:56:12.374Z,1013.53
2018-09-12T00:57:12.365Z,1013.49
2018-09-12T00:58:12.353Z,1013.48
2018-09-12T00:59:12.342Z,1013.53
2018-09-12T01:00:12.397Z,1013.53
2018-09-12T01:01:12.320Z,1013.49
2018-09-12T01:02:12.317Z,1013.52
2018-09-12T01:03:12.300Z,1013.53
2018-09-12T01:04:12.290Z,1013.53
2018-09-12T01:05:12.294Z,1013.52
2018-09-12T01:06:12.284Z,1013.56
2018-09-12T01:07:12.258Z,1013.54
2018-09-12T01:08:12.272Z,1013.52
2018-09-12T01:09:12.236Z,1013.52
2018-09-12T01:10:12.224Z,1013.53
2018-09-12T01:11:12.242Z,1013.56
2018-09-12T01:12:12.223Z,1013.53
2018-09-12T01:13:12.228Z,1013.53
2018-09-12T01:14:12.175Z,1013.49
2018-09-12T01:15:12.170Z,1013.53
2018-09-12T01:16:12.156Z,1013.57
2018-09-12T01:17:12.186Z,1013.58
2018-09-12T01:18:12.149Z,1013.52
2018-09-12T01:19:12.125Z,1013.54
2018-09-12T01:20:12.114Z,1013.56
2018-09-12T01:21:12.101Z,1013.53
2018-09-12T01:22:12.092Z,1013.57
2018-09-12T01:23:12.138Z,1013.56
2018-09-12T01:24:12.082Z,1013.57
2018-09-12T01:25:12.057Z,1013.51
2018-09-12T01:26:12.062Z,1013.51
2018-09-12T01:27:12.070Z,1013.50
2018-09-12T01:28:12.031Z,1013.48
2018-09-12T01:29:12.048Z,1013.47
2018-09-12T01:30:12.010Z,1013.46
2018-09-12T01:31:12.000Z,1013.43
2018-09-12T01:32:11.998Z,1013.40
2018-09-12T01:33:11.969Z,1013.41
2018-09-12T01:34:11.959Z,1013.43
2018-09-12T01:35:11.995Z,1013.42
2018-09-12T01:36:11.938Z,1013.41
2018-09-12T01:37:11.926Z,1013.45
2018-09-12T01:38:11.938Z,1013.45
2018-09-12T01:39:11.910Z,1013.42
2018-09-12T01:40:11.894Z,1013.44
2018-09-12T01:41:11.912Z,1013.42
2018-09-12T01:42:11.873Z,1013.39
2018-09-12T01:43:11.872Z,1013.36
2018-09-12T01:44:11.869Z,1013.37
2018-09-12T01:45:11.851Z,1013.31
2018-09-12T01:46:11.833Z,1013.28
2018-09-12T01:47:11.849Z,1013.31
2018-09-12T01:48:11.814Z,1013.30
2018-09-12T01:49:11.794Z,1013.24
2018-09-12T01:50:11.801Z,1013.23
2018-09-12T01:51:11.792Z,1013.25
2018-09-12T01:52:11.763Z,1013.22
2018-09-12T01:53:11.767Z,1013.21
2018-09-12T01:54:11.760Z,1013.19
2018-09-12T01:55:11.756Z,1013.19
2018-09-12T01:56:11.732Z,1013.15
2018-09-12T01:57:11.711Z,1013.17
2018-09-12T01:58:11.699Z,1013.15
2018-09-12T01:59:11.711Z,1013.16
2018-09-12T02:00:11.676Z,1013.15
2018-09-12T02:01:11.711Z,1013.14
2018-09-12T02:02:11.650Z,1013.15
2018-09-12T02:03:11.664Z,1013.06
2018-09-12T02:04:11.653Z,1013.07
2018-09-12T02:05:11.655Z,1013.07
2018-09-12T02:06:11.613Z,1013.08
2018-09-12T02:07:11.601Z,1013.07
2018-09-12T02:08:11.620Z,1013.04
2018-09-12T02:09:11.599Z,1013.08
2018-09-12T02:10:11.571Z,1013.04
2018-09-12T02:11:11.566Z,1013.06
2018-09-12T02:12:11.545Z,1013.07
2018-09-12T02:13:11.552Z,1013.00
2018-09-12T02:14:11.530Z,1013.02
2018-09-12T02:15:11.549Z,1013.00
2018-09-12T02:16:11.517Z,1012.94
2018-09-12T02:17:11.525Z,1012.93
2018-09-12T02:18:11.492Z,1012.92
2018-09-12T02:19:11.476Z,1012.90
2018-09-12T02:20:11.457Z,1012.90
2018-09-12T02:21:11.446Z,1012.93
2018-09-12T02:22:11.439Z,1012.93
2018-09-12T02:23:11.465Z,1012.92
2018-09-12T02:24:11.412Z,1012.92
2018-09-12T02:25:11.418Z,1012.90
2018-09-12T02:26:11.388Z,1012.89
2018-09-12T02:27:11.383Z,1012.91
2018-09-12T02:28:11.388Z,1012.92
2018-09-12T02:29:11.396Z,1012.93
2018-09-12T02:30:11.353Z,1012.90
2018-09-12T02:31:11.333Z,1012.97
2018-09-12T02:32:11.325Z,1012.95
2018-09-12T02:33:11.325Z,1012.96
2018-09-12T02:34:11.337Z,1012.97
2018-09-12T02:35:11.295Z,1013.00
2018-09-12T02:36:11.327Z,1012.97
2018-09-12T02:37:11.272Z,1012.99
2018-09-12T02:38:11.261Z,1012.97
2018-09-12T02:39:11.256Z,1012.97
2018-09-12T02:40:11.258Z,1012.92
2018-09-12T02:41:11.237Z,1012.94
2018-09-12T02:42:11.239Z,1012.93
2018-09-12T02:43:11.213Z,1012.90
2018-09-12T02:44:11.233Z,1012.91
2018-09-12T02:45:11.181Z,1012.91
2018-09-12T02:46:11.189Z,1012.91
2018-09-12T02:47:11.163Z,1012.89
2018-09-12T02:48:11.150Z,1012.84
2018-09-12T02:49:11.138Z,1012.84
2018-09-12T02:50:11.177Z,1012.83
2018-09-12T02:51:11.116Z,1012.85
2018-09-12T02:52:11.130Z,1012.85
2018-09-12T02:53:11.094Z,1012.90
2018-09-12T02:54:11.081Z,1012.87
2018-09-12T02:55:11.075Z,1012.89
2018-09-12T02:56:11.062Z,1012.84
2018-09-12T02:57:11.071Z,1012.83
2018-09-12T02:58:11.069Z,1012.83
2018-09-12T02:59:11.035Z,1012.86
2018-09-12T03:00:11.040Z,1012.81
2018-09-12T03:01:11.018Z,1012.75
2018-09-12T03:02:11.004Z,1012.71
2018-09-12T03:03:11.021Z,1012.76
2018-09-12T03:04:10.983Z,1012.70
2018-09-12T03:05:10.969Z,1012.71
2018-09-12T03:06:10.951Z,1012.69
2018-09-12T03:07:10.942Z,1012.68
2018-09-12T03:08:10.932Z,1012.66
2018-09-12T03:09:10.968Z,1012.63
2018-09-12T03:10:10.911Z,1012.62
2018-09-12T03:11:10.904Z,1012.60
2018-09-12T03:12:10.892Z,1012.60
2018-09-12T03:13:10.881Z,1012.61
2018-09-12T03:14:10.871Z,1012.62
2018-09-12T03:15:10.902Z,1012.60
2018-09-12T03:16:10.847Z,1012.64
2018-09-12T03:17:10.830Z,1012.59
2018-09-12T03:18:10.833Z,1012.56
2018-09-12T03:19:10.815Z,1012.58
2018-09-12T03:20:10.809Z,1012.62
2018-09-12T03:21:10.932Z,1012.64
2018-09-12T03:22:10.780Z,1012.64
2018-09-12T03:23:10.769Z,1012.69
2018-09-12T03:24:10.755Z,1012.63
2018-09-12T03:25:10.749Z,1012.67
2018-09-12T03:26:10.738Z,1012.67
2018-09-12T03:27:10.741Z,1012.70
2018-09-12T03:28:10.717Z,1012.69
2018-09-12T03:29:10.736Z,1012.69
2018-09-12T03:30:10.692Z,1012.67
2018-09-12T03:31:10.682Z,1012.70
2018-09-12T03:32:10.670Z,1012.69
2018-09-12T03:33:10.680Z,1012.69
2018-09-12T03:34:10.648Z,1012.68
2018-09-12T03:35:10.680Z,1012.65
2018-09-12T03:36:10.630Z,1012.67
2018-09-12T03:37:10.613Z,1012.66
2018-09-12T03:38:10.610Z,1012.65
2018-09-12T03:39:10.618Z,1012.59
2018-09-12T03:40:10.583Z,1012.61
2018-09-12T03:41:10.593Z,1012.61
2018-09-12T03:42:10.558Z,1012.61
2018-09-12T03:43:10.550Z,1012.61
2018-09-12T03:44:10.539Z,1012.66
2018-09-12T03:45:10.567Z,1012.59
2018-09-12T03:46:10.543Z,1012.62
2018-09-12T03:47:10.503Z,1012.57
2018-09-12T03:48:10.595Z,1012.56
2018-09-12T03:49:10.507Z,1012.53
2018-09-12T03:50:10.509Z,1012.58
2018-09-12T03:51:10.482Z,1012.54
2018-09-12T03:52:10.447Z,1012.52
2018-09-12T03:53:10.458Z,1012.54
2018-09-12T03:54:10.433Z,1012.55
2018-09-12T03:55:10.450Z,1012.55
2018-09-12T03:56:10.424Z,1012.56
2018-09-12T03:57:10.417Z,1012.57
2018-09-12T03:58:10.384Z,1012.56
2018-09-12T03:59:10.377Z,1012.62
2018-09-12T04:00:10.370Z,1012.63
2018-09-12T04:01:10.350Z,1012.62
2018-09-12T04:02:10.362Z,1012.61
2018-09-12T04:03:10.358Z,1012.61
2018-09-12T04:04:10.332Z,1012.61
2018-09-12T04:05:10.308Z,1012.60
2018-09-12T04:06:10.302Z,1012.59
2018-09-12T04:07:10.285Z,1012.60
2018-09-12T04:08:10.333Z,1012.63
2018-09-12T04:09:10.285Z,1012.64
2018-09-12T04:10:10.256Z,1012.62
2018-09-12T04:11:10.245Z,1012.62
2018-09-12T04:12:10.232Z,1012.63
2018-09-12T04:13:10.224Z,1012.58
2018-09-12T04:14:10.260Z,1012.59
2018-09-12T04:15:10.220Z,1012.59
2018-09-12T04:16:10.327Z,1012.61
2018-09-12T04:17:10.178Z,1012.62
2018-09-12T04:18:10.167Z,1012.62
2018-09-12T04:19:10.162Z,1012.59
2018-09-12T04:20:10.171Z,1012.62
2018-09-12T04:21:10.148Z,1012.60
2018-09-12T04:22:10.124Z,1012.66
2018-09-12T04:23:10.113Z,1012.68
2018-09-12T04:24:10.142Z,1012.63
2018-09-12T04:25:10.090Z,1012.64
2018-09-12T04:26:10.079Z,1012.71
2018-09-12T04:27:10.154Z,1012.72
2018-09-12T04:28:10.055Z,1012.75
2018-09-12T04:29:10.052Z,1012.77
2018-09-12T04:30:10.085Z,1012.69
2018-09-12T04:31:10.030Z,1012.72
2018-09-12T04:32:10.017Z,1012.70
2018-09-12T04:33:10.030Z,1012.75
2018-09-12T04:34:10.007Z,1012.71
2018-09-12T04:35:10.007Z,1012.74
2018-09-12T04:36:09.991Z,1012.72
2018-09-12T04:37:09.959Z,1012.77
2018-09-12T04:38:09.963Z,1012.80
2018-09-12T04:39:09.960Z,1012.86
2018-09-12T04:40:09.933Z,1012.82
2018-09-12T04:41:09.914Z,1012.80
2018-09-12T04:42:09.949Z,1012.85
2018-09-12T04:43:09.891Z,1012.83
2018-09-12T04:44:09.908Z,1012.84
2018-09-12T04:45:09.879Z,1012.84
2018-09-12T04:46:09.859Z,1012.87
2018-09-12T04:47:09.849Z,1012.83
2018-09-12T04:48:09.845Z,1012.84
2018-09-12T04:49:09.859Z,1012.86
2018-09-12T04:50:09.844Z,1012.88
2018-09-12T04:51:09.813Z,1012.86
2018-09-12T04:52:09.797Z,1012.85
2018-09-12T04:53:09.787Z,1012.87
2018-09-12T04:54:09.769Z,1012.85
2018-09-12T04:55:09.798Z,1012.84
2018-09-12T04:56:09.770Z,1012.89
2018-09-12T04:57:09.742Z,1012.87
2018-09-12T04:58:09.728Z,1012.88
2018-09-12T04:59:09.736Z,1012.86
2018-09-12T05:00:09.711Z,1012.80
2018-09-12T05:01:09.695Z,1012.83
2018-09-12T05:02:09.707Z,1012.81
2018-09-12T05:03:09.675Z,1012.81
2018-09-12T05:04:09.710Z,1012.86
2018-09-12T05:05:09.651Z,1012.82
2018-09-12T05:06:09.638Z,1012.80
2018-09-12T05:07:09.629Z,1012.81
2018-09-12T05:08:09.635Z,1012.83
2018-09-12T05:09:09.639Z,1012.79
2018-09-12T05:10:09.691Z,1012.77
2018-09-12T05:11:09.587Z,1012.73
2018-09-12T05:12:09.573Z,1012.79
2018-09-12T05:13:09.682Z,1012.76
2018-09-12T05:14:09.572Z,1012.77
2018-09-12T05:15:09.544Z,1012.80
2018-09-12T05:16:09.569Z,1012.80
2018-09-12T05:17:09.521Z,1012.79
2018-09-12T05:18:09.508Z,1012.78
2018-09-12T05:19:09.556Z,1012.76
2018-09-12T05:20:09.499Z,1012.76
2018-09-12T05:21:09.490Z,1012.78
2018-09-12T05:22:09.461Z,1012.76
2018-09-12T05:23:09.456Z,1012.80
2018-09-12T05:24:09.439Z,1012.80
2018-09-12T05:25:09.475Z,1012.82
2018-09-12T05:26:09.442Z,1012.85
2018-09-12T05:27:09.426Z,1012.87
2018-09-12T05:28:09.399Z,1012.87
2018-09-12T05:29:09.388Z,1012.86
2018-09-12T05:30:09.380Z,1012.84
2018-09-12T05:31:09.401Z,1012.87
2018-09-12T05:32:09.382Z,1012.81
2018-09-12T05:33:09.342Z,1012.83
2018-09-12T05:34:09.334Z,1012.87
2018-09-12T05:35:09.319Z,1012.85
2018-09-12T05:36:09.357Z,1012.87
2018-09-12T05:37:09.315Z,1012.83
2018-09-12T05:38:09.307Z,1012.86
2018-09-12T05:39:09.283Z,1012.81
2018-09-12T05:40:09.264Z,1012.81
2018-09-12T05:41:09.255Z,1012.83
2018-09-12T05:42:09.249Z,1012.82
2018-09-12T05:43:09.300Z,1012.82
2018-09-12T05:44:09.254Z,1012.88
2018-09-12T05:45:09.211Z,1012.85
2018-09-12T05:46:09.201Z,1012.85
2018-09-12T05:47:09.192Z,1012.77
2018-09-12T05:48:09.186Z,1012.79
2018-09-12T05:49:09.168Z,1012.81
2018-09-12T05:50:09.271Z,1012.84
2018-09-12T05:51:09.158Z,1012.85
2018-09-12T05:52:09.136Z,1012.84
2018-09-12T05:53:09.127Z,1012.81
2018-09-12T05:54:09.120Z,1012.86
2018-09-12T05:55:09.099Z,1012.83
2018-09-12T05:56:09.162Z,1012.85
2018-09-12T05:57:09.083Z,1012.85
2018-09-12T05:58:09.075Z,1012.90
2018-09-12T05:59:09.057Z,1012.83
2018-09-12T06:00:09.046Z,1012.91
2018-09-12T06:01:09.055Z,1012.90
2018-09-12T06:02:09.078Z,1012.91
2018-09-12T06:03:09.017Z,1012.93
2018-09-12T06:04:09.010Z,1012.93
2018-09-12T06:05:08.994Z,1012.93
2018-09-12T06:06:08.980Z,1012.92
2018-09-12T06:07:09.187Z,1012.94
2018-09-12T06:08:09.048Z,1012.97
2018-09-12T06:09:08.949Z,1012.94
2018-09-12T06:10:08.937Z,1012.92
2018-09-12T06:11:08.926Z,1012.87
2018-09-12T06:12:08.924Z,1012.94
2018-09-12T06:13:08.918Z,1012.89
2018-09-12T06:14:08.995Z,1012.90
2018-09-12T06:15:08.888Z,1012.90
2018-09-12T06:16:08.873Z,1012.90
2018-09-12T06:17:08.861Z,1012.89
2018-09-12T06:18:08.851Z,1012.89
2018-09-12T06:19:08.854Z,1012.86
2018-09-12T06:20:08.831Z,1012.86
2018-09-12T06:21:08.859Z,1012.84
2018-09-12T06:22:08.805Z,1012.82
2018-09-12T06:23:08.812Z,1012.86
2018-09-12T06:24:08.780Z,1012.82
2018-09-12T06:25:08.792Z,1012.79
2018-09-12T06:26:08.763Z,1012.81
2018-09-12T06:27:08.781Z,1012.86
2018-09-12T06:28:08.740Z,1012.83
2018-09-12T06:29:08.730Z,1012.86
2018-09-12T06:30:08.715Z,1012.83
2018-09-12T06:31:08.724Z,1012.78
2018-09-12T06:32:08.700Z,1012.76
2018-09-12T06:33:08.687Z,1012.72
2018-09-12T06:34:08.702Z,1012.72
2018-09-12T06:35:08.695Z,1012.70
2018-09-12T06:36:08.649Z,1012.63
2018-09-12T06:37:08.673Z,1012.64
2018-09-12T06:38:08.633Z,1012.63
2018-09-12T06:39:08.619Z,1012.62
2018-09-12T06:40:08.605Z,1012.63
2018-09-12T06:41:08.595Z,1012.64
2018-09-12T06:42:08.584Z,1012.62
2018-09-12T06:43:08.631Z,1012.60
2018-09-12T06:44:08.572Z,1012.60
2018-09-12T06:45:08.552Z,1012.58
2018-09-12T06:46:08.551Z,1012.62
2018-09-12T06:47:08.534Z,1012.62
2018-09-12T06:48:08.526Z,1012.67
2018-09-12T06:49:08.543Z,1012.72
2018-09-12T06:50:08.539Z,1012.74
2018-09-12T06:51:08.483Z,1012.72
2018-09-12T06:52:08.476Z,1012.70
2018-09-12T06:53:08.463Z,1012.71
2018-09-12T06:54:08.455Z,1012.74
2018-09-12T06:55:08.461Z,1012.73
2018-09-12T06:56:08.443Z,1012.70
2018-09-12T06:57:08.426Z,1012.74
2018-09-12T06:58:08.413Z,1012.74
2018-09-12T06:59:08.395Z,1012.79
2018-09-12T07:00:08.388Z,1012.80
2018-09-12T07:01:08.472Z,1012.84
2018-09-12T07:02:08.389Z,1012.82
2018-09-12T07:03:08.357Z,1012.84
2018-09-12T07:04:08.343Z,1012.86
2018-09-12T07:05:08.334Z,1012.79
2018-09-12T07:06:08.321Z,1012.85
2018-09-12T07:07:08.331Z,1012.85
2018-09-12T07:08:08.390Z,1012.87
2018-09-12T07:09:08.303Z,1012.86
2018-09-12T07:10:08.283Z,1012.84
2018-09-12T07:11:08.280Z,1012.84
2018-09-12T07:12:08.257Z,1012.84
2018-09-12T07:13:08.267Z,1012.87
2018-09-12T07:14:08.347Z,1012.85
2018-09-12T07:15:08.232Z,1012.82
2018-09-12T07:16:08.216Z,1012.83
2018-09-12T07:17:08.205Z,1012.87
2018-09-12T07:18:08.189Z,1012.80
2018-09-12T07:19:08.211Z,1012.86
2018-09-12T07:20:08.168Z,1012.87
2018-09-12T07:21:08.217Z,1012.88
2018-09-12T07:22:08.147Z,1012.89
2018-09-12T07:23:08.151Z,1012.90
2018-09-12T07:24:08.128Z,1012.94
2018-09-12T07:25:08.163Z,1012.91
2018-09-12T07:26:08.102Z,1012.92
2018-09-12T07:27:08.123Z,1012.98
2018-09-12T07:28:08.080Z,1012.95
2018-09-12T07:29:08.077Z,1012.98
2018-09-12T07:30:08.061Z,1012.99
2018-09-12T07:31:08.073Z,1013.00
2018-09-12T07:32:08.035Z,1012.96
2018-09-12T07:33:08.073Z,1012.96
2018-09-12T07:34:08.017Z,1012.97
2018-09-12T07:35:08.007Z,1012.90
2018-09-12T07:36:07.995Z,1012.89
2018-09-12T07:37:08.008Z,1012.89
2018-09-12T07:38:07.968Z,1012.93
2018-09-12T07:39:07.975Z,1012.93
2018-09-12T07:40:07.979Z,1012.96
2018-09-12T07:41:07.941Z,1012.93
2018-09-12T07:42:07.946Z,1012.94
2018-09-12T07:43:07.924Z,1012.91
2018-09-12T07:44:07.906Z,1012.95
2018-09-12T07:45:07.902Z,1012.94
2018-09-12T07:46:07.932Z,1012.93
2018-09-12T07:47:07.872Z,1012.96
2018-09-12T07:48:07.886Z,1012.95
2018-09-12T07:49:07.975Z,1012.98
2018-09-12T07:50:07.860Z,1013.02
2018-09-12T07:51:07.831Z,1013.02
2018-09-12T07:52:07.818Z,1012.99
2018-09-12T07:53:07.812Z,1013.00
2018-09-12T07:54:07.796Z,1013.02
2018-09-12T07:55:07.790Z,1012.98
2018-09-12T07:56:07.856Z,1013.03
2018-09-12T07:57:07.766Z,1012.97
2018-09-12T07:58:07.761Z,1013.00
2018-09-12T07:59:07.765Z,1013.04
2018-09-12T08:00:07.739Z,1012.99
2018-09-12T08:01:07.728Z,1013.06
2018-09-12T08:02:07.735Z,1013.00
2018-09-12T08:03:07.703Z,1013.01
2018-09-12T08:04:07.692Z,1013.09
2018-09-12T08:05:07.804Z,1013.04
2018-09-12T08:06:07.698Z,1013.08
2018-09-12T08:07:07.655Z,1013.08
2018-09-12T08:08:07.654Z,1013.08
2018-09-12T08:09:07.637Z,1013.10
2018-09-12T08:10:07.621Z,1013.09
2018-09-12T08:11:07.608Z,1013.15
2018-09-12T08:12:07.724Z,1013.11
2018-09-12T08:13:07.594Z,1013.12
2018-09-12T08:14:07.576Z,1013.15
2018-09-12T08:15:07.569Z,1013.14
2018-09-12T08:16:07.556Z,1013.19
2018-09-12T08:17:07.603Z,1013.16
2018-09-12T08:18:07.573Z,1013.21
2018-09-12T08:19:07.691Z,1013.19
2018-09-12T08:20:07.508Z,1013.21
2018-09-12T08:21:07.506Z,1013.19
2018-09-12T08:22:07.488Z,1013.22
2018-09-12T08:23:07.477Z,1013.21
2018-09-12T08:24:07.499Z,1013.23
2018-09-12T08:25:07.466Z,1013.28
2018-09-12T08:26:07.472Z,1013.24
2018-09-12T08:27:07.446Z,1013.27
2018-09-12T08:28:07.436Z,1013.35
2018-09-12T08:29:07.414Z,1013.36
2018-09-12T08:30:07.422Z,1013.36
2018-09-12T08:31:07.405Z,1013.35
2018-09-12T08:32:07.411Z,1013.31
2018-09-12T08:33:07.369Z,1013.34
2018-09-12T08:34:07.405Z,1013.36
2018-09-12T08:35:07.347Z,1013.28
2018-09-12T08:36:07.354Z,1013.35
2018-09-12T08:37:07.355Z,1013.36
2018-09-12T08:38:07.314Z,1013.34
2018-09-12T08:39:07.300Z,1013.34
2018-09-12T08:40:07.334Z,1013.32
2018-09-12T08:41:07.276Z,1013.38
2018-09-12T08:42:07.295Z,1013.40
2018-09-12T08:43:07.263Z,1013.44
2018-09-12T08:44:07.248Z,1013.41
2018-09-12T08:45:07.280Z,1013.42
2018-09-12T08:46:07.225Z,1013.46
2018-09-12T08:47:07.211Z,1013.45
2018-09-12T08:48:07.218Z,1013.45
2018-09-12T08:49:07.192Z,1013.47
2018-09-12T08:50:07.181Z,1013.52
2018-09-12T08:51:07.169Z,1013.50
2018-09-12T08:52:07.176Z,1013.47
2018-09-12T08:53:07.158Z,1013.53
2018-09-12T08:54:07.153Z,1013.52
2018-09-12T08:55:07.125Z,1013.50
2018-09-12T08:56:07.118Z,1013.52
2018-09-12T08:57:07.104Z,1013.55
2018-09-12T08:58:07.141Z,1013.55
2018-09-12T08:59:07.114Z,1013.66
2018-09-12T09:00:07.092Z,1013.78
2018-09-12T09:01:07.059Z,1013.77
2018-09-12T09:02:07.053Z,1013.85
2018-09-12T09:03:07.063Z,1013.84
2018-09-12T09:04:07.104Z,1013.84
2018-09-12T09:05:07.040Z,1013.84
2018-09-12T09:06:07.085Z,1013.86
2018-09-12T09:07:06.996Z,1013.87
2018-09-12T09:08:06.980Z,1013.92
2018-09-12T09:09:06.974Z,1013.93
2018-09-12T09:10:06.986Z,1013.97
2018-09-12T09:11:06.952Z,1013.92
2018-09-12T09:12:06.960Z,1014.04
2018-09-12T09:13:06.933Z,1014.16
2018-09-12T09:14:06.996Z,1014.20
2018-09-12T09:15:06.909Z,1014.17
2018-09-12T09:16:06.899Z,1014.13
2018-09-12T09:17:06.921Z,1014.08
2018-09-12T09:18:06.881Z,1014.10
2018-09-12T09:19:06.863Z,1014.18
2018-09-12T09:20:06.870Z,1014.14
2018-09-12T09:21:06.847Z,1014.16
2018-09-12T09:22:06.827Z,1014.22
2018-09-12T09:23:06.823Z,1014.25
2018-09-12T09:24:06.843Z,1014.26
2018-09-12T09:25:06.794Z,1014.30
2018-09-12T09:26:06.801Z,1014.28
2018-09-12T09:27:06.774Z,1014.32
2018-09-12T09:28:06.764Z,1014.24
2018-09-12T09:29:06.751Z,1014.26
2018-09-12T09:30:06.771Z,1014.30
2018-09-12T09:31:06.748Z,1014.30
2018-09-12T09:32:06.739Z,1014.38
2018-09-12T09:33:06.716Z,1014.36
2018-09-12T09:34:06.698Z,1014.41
2018-09-12T09:35:06.716Z,1014.44
2018-09-12T09:36:06.678Z,1014.47
2018-09-12T09:37:06.667Z,1014.51
2018-09-12T09:38:06.713Z,1014.55
2018-09-12T09:39:06.644Z,1014.53
2018-09-12T09:40:06.658Z,1014.59
2018-09-12T09:41:06.657Z,1014.58
2018-09-12T09:42:06.620Z,1014.61
2018-09-12T09:43:06.600Z,1014.62
2018-09-12T09:44:06.692Z,1014.59
2018-09-12T09:45:06.595Z,1014.60
2018-09-12T09:46:06.568Z,1014.61
2018-09-12T09:47:06.554Z,1014.60
2018-09-12T09:48:06.703Z,1014.65
2018-09-12T09:49:06.539Z,1014.62
2018-09-12T09:50:06.542Z,1014.68
2018-09-12T09:51:06.522Z,1014.75
2018-09-12T09:52:06.545Z,1014.76
2018-09-12T09:53:06.499Z,1014.78
2018-09-12T09:54:06.493Z,1014.83
2018-09-12T09:55:06.550Z,1014.88
2018-09-12T09:56:06.478Z,1014.84
2018-09-12T09:57:06.443Z,1014.87
2018-09-12T09:58:06.442Z,1014.84
2018-09-12T09:59:06.456Z,1014.88
2018-09-12T10:00:06.430Z,1014.90
2018-09-12T10:01:06.401Z,1014.87
2018-09-12T10:02:06.408Z,1014.84
2018-09-12T10:03:06.381Z,1014.87
2018-09-12T10:04:06.374Z,1014.87
2018-09-12T10:05:06.386Z,1014.91
2018-09-12T10:06:06.344Z,1014.86
2018-09-12T10:07:06.352Z,1014.89
2018-09-12T10:08:06.337Z,1014.91
2018-09-12T10:09:06.313Z,1014.89
2018-09-12T10:10:06.347Z,1014.87
2018-09-12T10:11:06.320Z,1014.88
2018-09-12T10:12:06.281Z,1014.84
2018-09-12T10:13:06.268Z,1014.90
2018-09-12T10:14:06.355Z,1014.91
2018-09-12T10:15:06.249Z,1014.91
2018-09-12T10:16:06.245Z,1014.91
2018-09-12T10:17:06.254Z,1014.98
2018-09-12T10:18:06.219Z,1014.98
2018-09-12T10:19:06.200Z,1014.99
2018-09-12T10:20:06.200Z,1014.96
2018-09-12T10:21:06.240Z,1015.01
2018-09-12T10:22:06.174Z,1014.99
2018-09-12T10:23:06.180Z,1015.06
2018-09-12T10:24:06.161Z,1015.13
2018-09-12T10:25:06.135Z,1015.12
2018-09-12T10:26:06.130Z,1015.10
2018-09-12T10:27:06.114Z,1015.10
2018-09-12T10:28:06.155Z,1015.10
2018-09-12T10:29:06.122Z,1015.13
2018-09-12T10:30:06.080Z,1015.10
2018-09-12T10:31:06.069Z,1015.10
2018-09-12T10:32:06.060Z,1015.18
2018-09-12T10:33:06.048Z,1015.07
2018-09-12T10:34:06.064Z,1015.04
2018-09-12T10:35:06.047Z,1015.02
2018-09-12T10:36:06.013Z,1015.08
2018-09-12T10:37:06.004Z,1015.11
2018-09-12T10:38:05.992Z,1015.11
2018-09-12T10:39:05.980Z,1015.07
2018-09-12T10:40:06.003Z,1015.05
2018-09-12T10:41:06.070Z,1015.05
2018-09-12T10:42:05.948Z,1015.09
2018-09-12T10:43:05.991Z,1015.19
2018-09-12T10:44:05.927Z,1015.17
2018-09-12T10:45:05.921Z,1015.15
2018-09-12T10:46:05.908Z,1015.17
2018-09-12T10:47:05.943Z,1015.12
2018-09-12T10:48:05.881Z,1015.12
2018-09-12T10:49:05.866Z,1015.11
2018-09-12T10:50:05.895Z,1015.08
2018-09-12T10:51:05.849Z,1015.13
2018-09-12T10:52:05.848Z,1015.14
2018-09-12T10:53:05.839Z,1015.16
2018-09-12T10:54:05.822Z,1015.22
2018-09-12T10:55:05.845Z,1015.20
2018-09-12T10:56:05.799Z,1015.18
2018-09-12T10:57:05.792Z,1015.15
2018-09-12T10:58:05.791Z,1015.20
2018-09-12T10:59:05.830Z,1015.17
2018-09-12T11:00:05.751Z,1015.15
2018-09-12T11:01:05.742Z,1015.13
2018-09-12T11:02:05.742Z,1015.23
2018-09-12T11:03:05.769Z,1015.16
2018-09-12T11:04:05.741Z,1015.24
2018-09-12T11:05:05.700Z,1015.25
2018-09-12T11:06:05.679Z,1015.23
2018-09-12T11:07:05.676Z,1015.31
2018-09-12T11:08:05.663Z,1015.34
2018-09-12T11:09:05.649Z,1015.34
2018-09-12T11:10:05.732Z,1015.37
2018-09-12T11:11:05.628Z,1015.36
2018-09-12T11:12:05.641Z,1015.37
2018-09-12T11:13:05.605Z,1015.36
2018-09-12T11:14:05.597Z,1015.41
2018-09-12T11:15:05.600Z,1015.38
2018-09-12T11:16:05.634Z,1015.43
2018-09-12T11:17:05.567Z,1015.44
2018-09-12T11:18:05.566Z,1015.47
2018-09-12T11:19:05.542Z,1015.52
2018-09-12T11:20:05.542Z,1015.56
2018-09-12T11:21:05.516Z,1015.59
2018-09-12T11:22:05.525Z,1015.60
2018-09-12T11:23:05.521Z,1015.63
2018-09-12T11:24:05.615Z,1015.63
2018-09-12T11:25:05.488Z,1015.64
2018-09-12T11:26:05.462Z,1015.65
2018-09-12T11:27:05.457Z,1015.64
2018-09-12T11:28:05.477Z,1015.69
2018-09-12T11:29:05.431Z,1015.64
2018-09-12T11:30:05.448Z,1015.64
2018-09-12T11:31:05.463Z,1015.63
2018-09-12T11:32:05.396Z,1015.67
2018-09-12T11:33:05.392Z,1015.68
2018-09-12T11:34:05.384Z,1015.70
2018-09-12T11:35:05.366Z,1015.70
2018-09-12T11:36:05.354Z,1015.74
2018-09-12T11:37:05.377Z,1015.71
2018-09-12T11:38:05.376Z,1015.68
2018-09-12T11:39:05.320Z,1015.67
2018-09-12T11:40:05.384Z,1015.67
2018-09-12T11:41:05.304Z,1015.68
2018-09-12T11:42:05.289Z,1015.71
2018-09-12T11:43:05.302Z,1015.66
2018-09-12T11:44:05.277Z,1015.72
2018-09-12T11:45:05.280Z,1015.72
2018-09-12T11:46:05.242Z,1015.71
2018-09-12T11:47:05.260Z,1015.70
2018-09-12T11:48:05.219Z,1015.70
2018-09-12T11:49:05.249Z,1015.66
2018-09-12T11:50:05.202Z,1015.70
2018-09-12T11:51:05.188Z,1015.71
2018-09-12T11:52:05.216Z,1015.76
2018-09-12T11:53:05.168Z,1015.80
2018-09-12T11:54:05.152Z,1015.80
2018-09-12T11:55:05.206Z,1015.80
2018-09-12T11:56:05.142Z,1015.79
2018-09-12T11:57:05.120Z,1015.83
2018-09-12T11:58:05.115Z,1015.85
2018-09-12T11:59:05.114Z,1015.88
2018-09-12T12:00:05.088Z,1015.89
2018-09-12T12:01:05.101Z,1015.93
2018-09-12T12:02:05.083Z,1015.97
2018-09-12T12:03:05.062Z,1016.03
2018-09-12T12:04:05.056Z,1016.03
2018-09-12T12:05:05.061Z,1016.07